sensor_id;sensor_type;location;lat;lon;timestamp;P1;durP1;ratioP1;P2;durP2;ratioP2
55601;SDS011;59921;51.332;12.410;2023-05-08T00:01:49;3.20;;;2.28;;
55601;SDS011;59921;51.332;12.410;2023-05-08T00:04:14;2.72;;;2.38;;
55601;SDS011;59921;51.332;12.410;2023-05-08T00:06:40;3.45;;;2.40;;
55601;SDS011;59921;51.332;12.410;2023-05-08T00:09:05;3.30;;;2.28;;
55601;SDS011;59921;51.332;12.410;2023-05-08T00:11:31;3.05;;;2.15;;
55601;SDS011;59921;51.332;12.410;2023-05-08T00:13:56;3.08;;;2.20;;
55601;SDS011;59921;51.332;12.410;2023-05-08T00:16:22;2.85;;;2.15;;
55601;SDS011;59921;51.332;12.410;2023-05-08T00:18:48;3.45;;;2.38;;
55601;SDS011;59921;51.332;12.410;2023-05-08T00:21:13;2.90;;;2.22;;
55601;SDS011;59921;51.332;12.410;2023-05-08T00:23:39;3.15;;;2.28;;
55601;SDS011;59921;51.332;12.410;2023-05-08T00:26:04;2.80;;;2.10;;
55601;SDS011;59921;51.332;12.410;2023-05-08T00:28:30;3.33;;;2.20;;
55601;SDS011;59921;51.332;12.410;2023-05-08T00:30:58;2.70;;;2.08;;
55601;SDS011;59921;51.332;12.410;2023-05-08T00:33:25;2.78;;;2.15;;
55601;SDS011;59921;51.332;12.410;2023-05-08T00:35:50;2.92;;;2.20;;
55601;SDS011;59921;51.332;12.410;2023-05-08T00:38:16;2.90;;;2.30;;
55601;SDS011;59921;51.332;12.410;2023-05-08T00:40:41;2.45;;;2.05;;
55601;SDS011;59921;51.332;12.410;2023-05-08T00:43:07;2.55;;;2.05;;
55601;SDS011;59921;51.332;12.410;2023-05-08T00:45:36;2.67;;;2.00;;
55601;SDS011;59921;51.332;12.410;2023-05-08T00:48:03;2.97;;;2.15;;
55601;SDS011;59921;51.332;12.410;2023-05-08T00:50:30;2.92;;;2.17;;
55601;SDS011;59921;51.332;12.410;2023-05-08T00:52:56;2.85;;;2.03;;
55601;SDS011;59921;51.332;12.410;2023-05-08T00:55:22;2.63;;;2.10;;
55601;SDS011;59921;51.332;12.410;2023-05-08T00:57:48;2.78;;;2.03;;
55601;SDS011;59921;51.332;12.410;2023-05-08T01:00:16;2.65;;;2.10;;
55601;SDS011;59921;51.332;12.410;2023-05-08T01:02:43;3.08;;;2.13;;
55601;SDS011;59921;51.332;12.410;2023-05-08T01:05:09;2.42;;;1.90;;
55601;SDS011;59921;51.332;12.410;2023-05-08T01:07:35;2.40;;;2.00;;
55601;SDS011;59921;51.332;12.410;2023-05-08T01:10:03;2.78;;;2.13;;
55601;SDS011;59921;51.332;12.410;2023-05-08T01:15:17;2.83;;;2.00;;
55601;SDS011;59921;51.332;12.410;2023-05-08T01:20:45;2.55;;;2.05;;
55601;SDS011;59921;51.332;12.410;2023-05-08T01:31:59;2.97;;;2.00;;
55601;SDS011;59921;51.332;12.410;2023-05-08T01:34:45;2.70;;;1.95;;
55601;SDS011;59921;51.332;12.410;2023-05-08T01:37:16;2.45;;;1.80;;
55601;SDS011;59921;51.332;12.410;2023-05-08T01:39:56;2.33;;;1.85;;
55601;SDS011;59921;51.332;12.410;2023-05-08T01:42:33;2.20;;;1.77;;
55601;SDS011;59921;51.332;12.410;2023-05-08T01:45:13;2.50;;;1.80;;
55601;SDS011;59921;51.332;12.410;2023-05-08T01:47:46;2.28;;;2.00;;
55601;SDS011;59921;51.332;12.410;2023-05-08T01:50:20;2.63;;;1.90;;
55601;SDS011;59921;51.332;12.410;2023-05-08T01:52:57;2.03;;;1.70;;
55601;SDS011;59921;51.332;12.410;2023-05-08T01:55:30;2.65;;;2.00;;
55601;SDS011;59921;51.332;12.410;2023-05-08T01:58:01;2.35;;;1.70;;
55601;SDS011;59921;51.332;12.410;2023-05-08T02:00:31;2.10;;;1.80;;
55601;SDS011;59921;51.332;12.410;2023-05-08T02:02:56;2.47;;;1.85;;
55601;SDS011;59921;51.332;12.410;2023-05-08T02:05:23;2.28;;;1.80;;
55601;SDS011;59921;51.332;12.410;2023-05-08T02:07:49;2.42;;;2.00;;
55601;SDS011;59921;51.332;12.410;2023-05-08T02:10:17;2.38;;;2.00;;
55601;SDS011;59921;51.332;12.410;2023-05-08T02:12:44;1.88;;;1.60;;
55601;SDS011;59921;51.332;12.410;2023-05-08T02:15:11;2.42;;;1.90;;
55601;SDS011;59921;51.332;12.410;2023-05-08T02:17:39;2.20;;;1.90;;
55601;SDS011;59921;51.332;12.410;2023-05-08T02:20:07;1.90;;;1.70;;
55601;SDS011;59921;51.332;12.410;2023-05-08T02:22:39;2.60;;;1.90;;
55601;SDS011;59921;51.332;12.410;2023-05-08T02:25:08;2.58;;;1.92;;
55601;SDS011;59921;51.332;12.410;2023-05-08T02:27:36;2.10;;;1.88;;
55601;SDS011;59921;51.332;12.410;2023-05-08T02:30:03;2.20;;;1.73;;
55601;SDS011;59921;51.332;12.410;2023-05-08T02:32:30;2.30;;;1.90;;
55601;SDS011;59921;51.332;12.410;2023-05-08T02:34:56;2.15;;;1.80;;
55601;SDS011;59921;51.332;12.410;2023-05-08T02:37:23;2.47;;;1.90;;
55601;SDS011;59921;51.332;12.410;2023-05-08T02:39:50;2.30;;;1.73;;
55601;SDS011;59921;51.332;12.410;2023-05-08T02:42:18;2.35;;;1.73;;
55601;SDS011;59921;51.332;12.410;2023-05-08T02:44:44;2.22;;;1.70;;
55601;SDS011;59921;51.332;12.410;2023-05-08T02:47:26;2.40;;;1.80;;
55601;SDS011;59921;51.332;12.410;2023-05-08T02:49:59;2.35;;;1.90;;
55601;SDS011;59921;51.332;12.410;2023-05-08T02:52:33;2.65;;;1.90;;
55601;SDS011;59921;51.332;12.410;2023-05-08T02:58:30;2.10;;;1.80;;
55601;SDS011;59921;51.332;12.410;2023-05-08T03:01:36;2.22;;;1.80;;
55601;SDS011;59921;51.332;12.410;2023-05-08T03:04:01;2.03;;;1.75;;
55601;SDS011;59921;51.332;12.410;2023-05-08T03:06:30;1.98;;;1.70;;
55601;SDS011;59921;51.332;12.410;2023-05-08T03:09:01;1.98;;;1.70;;
55601;SDS011;59921;51.332;12.410;2023-05-08T03:11:30;2.13;;;1.63;;
55601;SDS011;59921;51.332;12.410;2023-05-08T03:14:05;2.03;;;1.60;;
55601;SDS011;59921;51.332;12.410;2023-05-08T03:16:35;1.98;;;1.70;;
55601;SDS011;59921;51.332;12.410;2023-05-08T03:19:04;1.95;;;1.58;;
55601;SDS011;59921;51.332;12.410;2023-05-08T03:21:34;2.05;;;1.70;;
55601;SDS011;59921;51.332;12.410;2023-05-08T03:24:01;1.92;;;1.55;;
55601;SDS011;59921;51.332;12.410;2023-05-08T03:26:27;1.77;;;1.60;;
55601;SDS011;59921;51.332;12.410;2023-05-08T03:28:53;2.08;;;1.65;;
55601;SDS011;59921;51.332;12.410;2023-05-08T03:31:20;2.05;;;1.63;;
55601;SDS011;59921;51.332;12.410;2023-05-08T03:33:47;1.77;;;1.60;;
55601;SDS011;59921;51.332;12.410;2023-05-08T03:36:15;2.40;;;1.70;;
55601;SDS011;59921;51.332;12.410;2023-05-08T03:38:41;2.22;;;1.70;;
55601;SDS011;59921;51.332;12.410;2023-05-08T03:41:07;2.13;;;1.60;;
55601;SDS011;59921;51.332;12.410;2023-05-08T03:43:32;1.70;;;1.50;;
55601;SDS011;59921;51.332;12.410;2023-05-08T03:46:00;2.13;;;1.70;;
55601;SDS011;59921;51.332;12.410;2023-05-08T03:48:26;2.00;;;1.60;;
55601;SDS011;59921;51.332;12.410;2023-05-08T03:50:54;2.10;;;1.80;;
55601;SDS011;59921;51.332;12.410;2023-05-08T03:53:20;1.90;;;1.50;;
55601;SDS011;59921;51.332;12.410;2023-05-08T03:55:46;2.08;;;1.58;;
55601;SDS011;59921;51.332;12.410;2023-05-08T04:01:07;1.83;;;1.50;;
55601;SDS011;59921;51.332;12.410;2023-05-08T04:03:55;2.45;;;1.70;;
55601;SDS011;59921;51.332;12.410;2023-05-08T04:06:28;2.40;;;1.42;;
55601;SDS011;59921;51.332;12.410;2023-05-08T04:10:01;1.40;;;1.30;;
55601;SDS011;59921;51.332;12.410;2023-05-08T04:12:17;1.52;;;1.40;;
55601;SDS011;59921;51.332;12.410;2023-05-08T04:14:54;2.00;;;1.50;;
55601;SDS011;59921;51.332;12.410;2023-05-08T04:17:47;2.05;;;1.52;;
55601;SDS011;59921;51.332;12.410;2023-05-08T04:20:18;1.67;;;1.55;;
55601;SDS011;59921;51.332;12.410;2023-05-08T04:22:45;1.92;;;1.38;;
55601;SDS011;59921;51.332;12.410;2023-05-08T04:25:12;2.05;;;1.60;;
55601;SDS011;59921;51.332;12.410;2023-05-08T04:27:41;2.05;;;1.77;;
55601;SDS011;59921;51.332;12.410;2023-05-08T04:30:08;1.75;;;1.40;;
55601;SDS011;59921;51.332;12.410;2023-05-08T04:32:35;1.90;;;1.48;;
55601;SDS011;59921;51.332;12.410;2023-05-08T04:35:02;1.45;;;1.30;;
55601;SDS011;59921;51.332;12.410;2023-05-08T04:37:28;1.38;;;1.20;;
55601;SDS011;59921;51.332;12.410;2023-05-08T04:39:58;1.85;;;1.65;;
55601;SDS011;59921;51.332;12.410;2023-05-08T04:42:24;1.83;;;1.50;;
55601;SDS011;59921;51.332;12.410;2023-05-08T04:44:51;1.60;;;1.50;;
55601;SDS011;59921;51.332;12.410;2023-05-08T04:47:17;2.05;;;1.58;;
55601;SDS011;59921;51.332;12.410;2023-05-08T04:49:43;1.70;;;1.50;;
55601;SDS011;59921;51.332;12.410;2023-05-08T04:52:08;1.60;;;1.50;;
55601;SDS011;59921;51.332;12.410;2023-05-08T04:54:34;1.90;;;1.50;;
55601;SDS011;59921;51.332;12.410;2023-05-08T04:57:00;2.13;;;1.60;;
55601;SDS011;59921;51.332;12.410;2023-05-08T04:59:25;2.03;;;1.63;;
55601;SDS011;59921;51.332;12.410;2023-05-08T05:01:51;1.40;;;1.30;;
55601;SDS011;59921;51.332;12.410;2023-05-08T05:04:17;1.70;;;1.45;;
55601;SDS011;59921;51.332;12.410;2023-05-08T05:06:42;1.60;;;1.33;;
55601;SDS011;59921;51.332;12.410;2023-05-08T05:09:08;1.63;;;1.52;;
55601;SDS011;59921;51.332;12.410;2023-05-08T05:11:34;1.60;;;1.25;;
55601;SDS011;59921;51.332;12.410;2023-05-08T05:14:00;1.48;;;1.38;;
55601;SDS011;59921;51.332;12.410;2023-05-08T05:16:25;1.80;;;1.48;;
55601;SDS011;59921;51.332;12.410;2023-05-08T05:18:51;2.00;;;1.60;;
55601;SDS011;59921;51.332;12.410;2023-05-08T05:21:18;1.70;;;1.50;;
55601;SDS011;59921;51.332;12.410;2023-05-08T05:23:43;1.75;;;1.30;;
55601;SDS011;59921;51.332;12.410;2023-05-08T05:26:09;1.70;;;1.50;;
55601;SDS011;59921;51.332;12.410;2023-05-08T05:28:34;1.63;;;1.40;;
55601;SDS011;59921;51.332;12.410;2023-05-08T05:31:00;1.65;;;1.40;;
55601;SDS011;59921;51.332;12.410;2023-05-08T05:33:25;1.85;;;1.60;;
55601;SDS011;59921;51.332;12.410;2023-05-08T05:35:51;1.77;;;1.30;;
55601;SDS011;59921;51.332;12.410;2023-05-08T05:38:17;1.60;;;1.40;;
55601;SDS011;59921;51.332;12.410;2023-05-08T05:40:42;1.65;;;1.35;;
55601;SDS011;59921;51.332;12.410;2023-05-08T05:43:08;1.58;;;1.30;;
55601;SDS011;59921;51.332;12.410;2023-05-08T05:45:34;1.40;;;1.30;;
55601;SDS011;59921;51.332;12.410;2023-05-08T05:48:00;1.52;;;1.30;;
55601;SDS011;59921;51.332;12.410;2023-05-08T05:50:26;1.88;;;1.52;;
55601;SDS011;59921;51.332;12.410;2023-05-08T05:52:52;1.40;;;1.23;;
55601;SDS011;59921;51.332;12.410;2023-05-08T05:55:18;1.40;;;1.20;;
55601;SDS011;59921;51.332;12.410;2023-05-08T05:57:44;1.58;;;1.48;;
55601;SDS011;59921;51.332;12.410;2023-05-08T06:00:10;1.70;;;1.38;;
55601;SDS011;59921;51.332;12.410;2023-05-08T06:02:36;1.58;;;1.35;;
55601;SDS011;59921;51.332;12.410;2023-05-08T06:05:02;1.35;;;1.25;;
55601;SDS011;59921;51.332;12.410;2023-05-08T06:07:28;1.73;;;1.38;;
55601;SDS011;59921;51.332;12.410;2023-05-08T06:09:53;1.40;;;1.23;;
55601;SDS011;59921;51.332;12.410;2023-05-08T06:12:20;1.55;;;1.25;;
55601;SDS011;59921;51.332;12.410;2023-05-08T06:14:46;2.00;;;1.50;;
55601;SDS011;59921;51.332;12.410;2023-05-08T06:17:11;1.50;;;1.40;;
55601;SDS011;59921;51.332;12.410;2023-05-08T06:19:37;1.50;;;1.20;;
55601;SDS011;59921;51.332;12.410;2023-05-08T06:22:02;1.50;;;1.40;;
55601;SDS011;59921;51.332;12.410;2023-05-08T06:24:28;1.95;;;1.40;;
55601;SDS011;59921;51.332;12.410;2023-05-08T06:26:53;1.67;;;1.42;;
55601;SDS011;59921;51.332;12.410;2023-05-08T06:29:19;2.65;;;1.50;;
55601;SDS011;59921;51.332;12.410;2023-05-08T06:31:45;1.42;;;1.20;;
55601;SDS011;59921;51.332;12.410;2023-05-08T06:34:10;1.77;;;1.48;;
55601;SDS011;59921;51.332;12.410;2023-05-08T06:36:36;1.58;;;1.38;;
55601;SDS011;59921;51.332;12.410;2023-05-08T06:39:05;2.08;;;1.40;;
55601;SDS011;59921;51.332;12.410;2023-05-08T06:41:31;1.70;;;1.60;;
55601;SDS011;59921;51.332;12.410;2023-05-08T06:43:57;1.75;;;1.33;;
55601;SDS011;59921;51.332;12.410;2023-05-08T06:46:23;1.60;;;1.40;;
55601;SDS011;59921;51.332;12.410;2023-05-08T06:48:48;1.85;;;1.27;;
55601;SDS011;59921;51.332;12.410;2023-05-08T06:51:14;1.70;;;1.38;;
55601;SDS011;59921;51.332;12.410;2023-05-08T06:53:39;1.85;;;1.50;;
55601;SDS011;59921;51.332;12.410;2023-05-08T06:56:08;1.75;;;1.45;;
55601;SDS011;59921;51.332;12.410;2023-05-08T06:58:33;1.30;;;1.20;;
55601;SDS011;59921;51.332;12.410;2023-05-08T07:00:59;1.83;;;1.50;;
55601;SDS011;59921;51.332;12.410;2023-05-08T07:03:26;1.80;;;1.50;;
55601;SDS011;59921;51.332;12.410;2023-05-08T07:05:52;1.52;;;1.30;;
55601;SDS011;59921;51.332;12.410;2023-05-08T07:08:18;1.50;;;1.40;;
55601;SDS011;59921;51.332;12.410;2023-05-08T07:10:43;1.40;;;1.25;;
55601;SDS011;59921;51.332;12.410;2023-05-08T07:13:09;1.60;;;1.30;;
55601;SDS011;59921;51.332;12.410;2023-05-08T07:15:35;1.33;;;1.23;;
55601;SDS011;59921;51.332;12.410;2023-05-08T07:18:00;2.15;;;1.67;;
55601;SDS011;59921;51.332;12.410;2023-05-08T07:20:26;1.83;;;1.45;;
55601;SDS011;59921;51.332;12.410;2023-05-08T07:22:52;1.77;;;1.38;;
55601;SDS011;59921;51.332;12.410;2023-05-08T07:25:17;2.33;;;1.70;;
55601;SDS011;59921;51.332;12.410;2023-05-08T07:27:43;2.03;;;1.55;;
55601;SDS011;59921;51.332;12.410;2023-05-08T07:30:09;1.58;;;1.40;;
55601;SDS011;59921;51.332;12.410;2023-05-08T07:32:34;1.92;;;1.50;;
55601;SDS011;59921;51.332;12.410;2023-05-08T07:35:02;2.08;;;1.60;;
55601;SDS011;59921;51.332;12.410;2023-05-08T07:37:30;1.60;;;1.38;;
55601;SDS011;59921;51.332;12.410;2023-05-08T07:39:57;1.77;;;1.30;;
55601;SDS011;59921;51.332;12.410;2023-05-08T07:42:22;1.70;;;1.30;;
55601;SDS011;59921;51.332;12.410;2023-05-08T07:44:48;1.50;;;1.40;;
55601;SDS011;59921;51.332;12.410;2023-05-08T07:47:13;1.52;;;1.33;;
55601;SDS011;59921;51.332;12.410;2023-05-08T07:49:39;1.63;;;1.40;;
55601;SDS011;59921;51.332;12.410;2023-05-08T07:52:04;1.90;;;1.60;;
55601;SDS011;59921;51.332;12.410;2023-05-08T07:54:30;2.05;;;1.40;;
55601;SDS011;59921;51.332;12.410;2023-05-08T07:56:56;1.67;;;1.48;;
55601;SDS011;59921;51.332;12.410;2023-05-08T07:59:21;1.48;;;1.35;;
55601;SDS011;59921;51.332;12.410;2023-05-08T08:01:47;2.08;;;1.55;;
55601;SDS011;59921;51.332;12.410;2023-05-08T08:04:12;2.53;;;1.30;;
55601;SDS011;59921;51.332;12.410;2023-05-08T08:06:41;1.90;;;1.60;;
55601;SDS011;59921;51.332;12.410;2023-05-08T08:09:07;1.73;;;1.42;;
55601;SDS011;59921;51.332;12.410;2023-05-08T08:11:32;1.50;;;1.33;;
55601;SDS011;59921;51.332;12.410;2023-05-08T08:13:58;1.83;;;1.50;;
55601;SDS011;59921;51.332;12.410;2023-05-08T08:16:23;2.13;;;1.52;;
55601;SDS011;59921;51.332;12.410;2023-05-08T08:18:49;1.90;;;1.50;;
55601;SDS011;59921;51.332;12.410;2023-05-08T08:21:16;1.60;;;1.45;;
55601;SDS011;59921;51.332;12.410;2023-05-08T08:23:43;2.00;;;1.55;;
55601;SDS011;59921;51.332;12.410;2023-05-08T08:26:08;1.88;;;1.50;;
55601;SDS011;59921;51.332;12.410;2023-05-08T08:28:34;1.50;;;1.40;;
55601;SDS011;59921;51.332;12.410;2023-05-08T08:30:59;1.90;;;1.50;;
55601;SDS011;59921;51.332;12.410;2023-05-08T08:33:26;1.88;;;1.60;;
55601;SDS011;59921;51.332;12.410;2023-05-08T08:35:53;2.40;;;1.70;;
55601;SDS011;59921;51.332;12.410;2023-05-08T08:38:18;1.58;;;1.30;;
55601;SDS011;59921;51.332;12.410;2023-05-08T08:40:44;2.00;;;1.52;;
55601;SDS011;59921;51.332;12.410;2023-05-08T08:43:09;2.00;;;1.50;;
55601;SDS011;59921;51.332;12.410;2023-05-08T08:45:35;1.90;;;1.60;;
55601;SDS011;59921;51.332;12.410;2023-05-08T08:48:01;1.70;;;1.40;;
55601;SDS011;59921;51.332;12.410;2023-05-08T08:50:31;1.70;;;1.50;;
55601;SDS011;59921;51.332;12.410;2023-05-08T08:55:36;2.20;;;1.70;;
55601;SDS011;59921;51.332;12.410;2023-05-08T08:58:15;1.88;;;1.65;;
55601;SDS011;59921;51.332;12.410;2023-05-08T09:00:47;1.80;;;1.55;;
55601;SDS011;59921;51.332;12.410;2023-05-08T09:03:14;2.50;;;1.67;;
55601;SDS011;59921;51.332;12.410;2023-05-08T09:05:40;2.42;;;1.77;;
55601;SDS011;59921;51.332;12.410;2023-05-08T09:08:10;2.15;;;1.65;;
55601;SDS011;59921;51.332;12.410;2023-05-08T09:10:36;2.17;;;1.77;;
55601;SDS011;59921;51.332;12.410;2023-05-08T09:13:02;2.40;;;1.67;;
55601;SDS011;59921;51.332;12.410;2023-05-08T09:15:30;2.10;;;1.70;;
55601;SDS011;59921;51.332;12.410;2023-05-08T09:17:57;2.50;;;1.88;;
55601;SDS011;59921;51.332;12.410;2023-05-08T09:20:23;2.22;;;1.77;;
55601;SDS011;59921;51.332;12.410;2023-05-08T09:22:49;2.60;;;2.00;;
55601;SDS011;59921;51.332;12.410;2023-05-08T09:25:15;2.42;;;1.70;;
55601;SDS011;59921;51.332;12.410;2023-05-08T09:27:43;2.20;;;1.75;;
55601;SDS011;59921;51.332;12.410;2023-05-08T09:30:09;1.90;;;1.60;;
55601;SDS011;59921;51.332;12.410;2023-05-08T09:32:37;2.13;;;1.60;;
55601;SDS011;59921;51.332;12.410;2023-05-08T09:35:04;2.08;;;1.73;;
55601;SDS011;59921;51.332;12.410;2023-05-08T09:37:31;1.95;;;1.70;;
55601;SDS011;59921;51.332;12.410;2023-05-08T09:42:46;2.15;;;1.65;;
55601;SDS011;59921;51.332;12.410;2023-05-08T09:45:29;2.55;;;1.90;;
55601;SDS011;59921;51.332;12.410;2023-05-08T09:47:55;2.35;;;2.00;;
55601;SDS011;59921;51.332;12.410;2023-05-08T09:50:22;2.33;;;1.80;;
55601;SDS011;59921;51.332;12.410;2023-05-08T09:52:48;2.33;;;1.90;;
55601;SDS011;59921;51.332;12.410;2023-05-08T09:55:15;2.42;;;1.80;;
55601;SDS011;59921;51.332;12.410;2023-05-08T09:57:57;2.50;;;2.00;;
55601;SDS011;59921;51.332;12.410;2023-05-08T10:00:24;2.55;;;1.90;;
55601;SDS011;59921;51.332;12.410;2023-05-08T10:02:54;2.85;;;2.00;;
55601;SDS011;59921;51.332;12.410;2023-05-08T10:05:23;2.35;;;2.05;;
55601;SDS011;59921;51.332;12.410;2023-05-08T10:08:18;2.83;;;2.10;;
55601;SDS011;59921;51.332;12.410;2023-05-08T10:10:46;2.40;;;1.92;;
55601;SDS011;59921;51.332;12.410;2023-05-08T10:13:12;2.63;;;2.00;;
55601;SDS011;59921;51.332;12.410;2023-05-08T10:15:40;2.28;;;1.90;;
55601;SDS011;59921;51.332;12.410;2023-05-08T10:18:07;2.78;;;2.17;;
55601;SDS011;59921;51.332;12.410;2023-05-08T10:20:37;3.55;;;2.20;;
55601;SDS011;59921;51.332;12.410;2023-05-08T10:23:06;2.80;;;2.10;;
55601;SDS011;59921;51.332;12.410;2023-05-08T10:25:35;3.13;;;2.13;;
55601;SDS011;59921;51.332;12.410;2023-05-08T10:30:42;2.95;;;2.35;;
55601;SDS011;59921;51.332;12.410;2023-05-08T10:33:09;3.38;;;2.40;;
55601;SDS011;59921;51.332;12.410;2023-05-08T10:35:36;3.22;;;2.60;;
55601;SDS011;59921;51.332;12.410;2023-05-08T10:38:02;2.90;;;2.30;;
55601;SDS011;59921;51.332;12.410;2023-05-08T10:40:28;3.15;;;2.33;;
55601;SDS011;59921;51.332;12.410;2023-05-08T10:42:55;3.38;;;2.40;;
55601;SDS011;59921;51.332;12.410;2023-05-08T10:45:21;3.80;;;2.63;;
55601;SDS011;59921;51.332;12.410;2023-05-08T10:50:27;3.63;;;2.53;;
55601;SDS011;59921;51.332;12.410;2023-05-08T10:53:14;3.25;;;2.40;;
55601;SDS011;59921;51.332;12.410;2023-05-08T10:55:45;3.95;;;2.78;;
55601;SDS011;59921;51.332;12.410;2023-05-08T10:58:15;3.70;;;2.88;;
55601;SDS011;59921;51.332;12.410;2023-05-08T11:03:43;3.22;;;2.42;;
55601;SDS011;59921;51.332;12.410;2023-05-08T11:06:10;3.35;;;2.60;;
55601;SDS011;59921;51.332;12.410;2023-05-08T11:09:09;3.85;;;2.70;;
55601;SDS011;59921;51.332;12.410;2023-05-08T11:11:31;3.55;;;2.55;;
55601;SDS011;59921;51.332;12.410;2023-05-08T11:19:18;3.72;;;2.67;;
55601;SDS011;59921;51.332;12.410;2023-05-08T11:26:59;4.35;;;3.08;;
55601;SDS011;59921;51.332;12.410;2023-05-08T11:29:25;3.50;;;2.63;;
55601;SDS011;59921;51.332;12.410;2023-05-08T11:31:51;4.53;;;3.03;;
55601;SDS011;59921;51.332;12.410;2023-05-08T11:37:10;3.88;;;2.80;;
55601;SDS011;59921;51.332;12.410;2023-05-08T11:39:41;4.07;;;2.97;;
55601;SDS011;59921;51.332;12.410;2023-05-08T11:50:09;5.55;;;3.40;;
55601;SDS011;59921;51.332;12.410;2023-05-08T11:52:38;4.05;;;2.90;;
55601;SDS011;59921;51.332;12.410;2023-05-08T11:55:06;4.95;;;3.08;;
55601;SDS011;59921;51.332;12.410;2023-05-08T11:57:33;3.42;;;2.55;;
55601;SDS011;59921;51.332;12.410;2023-05-08T12:00:02;4.25;;;3.00;;
55601;SDS011;59921;51.332;12.410;2023-05-08T12:02:40;3.63;;;2.92;;
55601;SDS011;59921;51.332;12.410;2023-05-08T12:05:07;5.00;;;2.88;;
55601;SDS011;59921;51.332;12.410;2023-05-08T12:07:43;4.18;;;2.85;;
55601;SDS011;59921;51.332;12.410;2023-05-08T12:10:10;4.15;;;2.80;;
55601;SDS011;59921;51.332;12.410;2023-05-08T12:12:37;4.13;;;3.22;;
55601;SDS011;59921;51.332;12.410;2023-05-08T12:15:07;4.00;;;3.00;;
55601;SDS011;59921;51.332;12.410;2023-05-08T12:17:34;4.70;;;3.28;;
55601;SDS011;59921;51.332;12.410;2023-05-08T12:20:13;4.82;;;3.20;;
55601;SDS011;59921;51.332;12.410;2023-05-08T12:22:41;5.25;;;3.40;;
55601;SDS011;59921;51.332;12.410;2023-05-08T12:25:08;4.55;;;3.00;;
55601;SDS011;59921;51.332;12.410;2023-05-08T12:27:38;4.70;;;3.28;;
55601;SDS011;59921;51.332;12.410;2023-05-08T12:30:04;4.32;;;2.97;;
55601;SDS011;59921;51.332;12.410;2023-05-08T12:32:37;4.60;;;3.28;;
55601;SDS011;59921;51.332;12.410;2023-05-08T12:35:07;4.47;;;3.30;;
55601;SDS011;59921;51.332;12.410;2023-05-08T12:37:33;4.35;;;2.97;;
55601;SDS011;59921;51.332;12.410;2023-05-08T12:39:59;5.20;;;3.15;;
55601;SDS011;59921;51.332;12.410;2023-05-08T12:42:44;4.45;;;3.30;;
55601;SDS011;59921;51.332;12.410;2023-05-08T12:45:24;4.70;;;3.20;;
55601;SDS011;59921;51.332;12.410;2023-05-08T12:47:52;4.95;;;3.53;;
55601;SDS011;59921;51.332;12.410;2023-05-08T12:50:22;4.38;;;3.22;;
55601;SDS011;59921;51.332;12.410;2023-05-08T12:52:50;4.80;;;3.03;;
55601;SDS011;59921;51.332;12.410;2023-05-08T12:55:26;4.97;;;3.42;;
55601;SDS011;59921;51.332;12.410;2023-05-08T12:57:59;5.13;;;3.25;;
55601;SDS011;59921;51.332;12.410;2023-05-08T13:00:48;5.53;;;3.72;;
55601;SDS011;59921;51.332;12.410;2023-05-08T13:03:22;4.95;;;3.45;;
55601;SDS011;59921;51.332;12.410;2023-05-08T13:05:52;4.75;;;3.60;;
55601;SDS011;59921;51.332;12.410;2023-05-08T13:08:19;4.38;;;3.20;;
55601;SDS011;59921;51.332;12.410;2023-05-08T13:13:14;5.38;;;3.42;;
55601;SDS011;59921;51.332;12.410;2023-05-08T13:15:41;4.45;;;3.20;;
55601;SDS011;59921;51.332;12.410;2023-05-08T13:18:07;4.40;;;3.10;;
55601;SDS011;59921;51.332;12.410;2023-05-08T13:20:33;5.28;;;3.65;;
55601;SDS011;59921;51.332;12.410;2023-05-08T13:22:59;5.28;;;3.65;;
55601;SDS011;59921;51.332;12.410;2023-05-08T13:25:24;5.60;;;3.50;;
55601;SDS011;59921;51.332;12.410;2023-05-08T13:27:50;5.30;;;3.45;;
55601;SDS011;59921;51.332;12.410;2023-05-08T13:30:15;4.10;;;2.88;;
55601;SDS011;59921;51.332;12.410;2023-05-08T13:32:42;4.38;;;3.30;;
55601;SDS011;59921;51.332;12.410;2023-05-08T13:35:07;5.35;;;3.50;;
55601;SDS011;59921;51.332;12.410;2023-05-08T13:37:33;4.93;;;3.35;;
55601;SDS011;59921;51.332;12.410;2023-05-08T13:39:58;4.82;;;3.50;;
55601;SDS011;59921;51.332;12.410;2023-05-08T13:42:24;5.28;;;3.38;;
55601;SDS011;59921;51.332;12.410;2023-05-08T13:44:49;5.50;;;3.33;;
55601;SDS011;59921;51.332;12.410;2023-05-08T13:47:15;4.93;;;3.42;;
55601;SDS011;59921;51.332;12.410;2023-05-08T13:49:40;4.50;;;3.22;;
55601;SDS011;59921;51.332;12.410;2023-05-08T13:52:06;5.05;;;3.67;;
55601;SDS011;59921;51.332;12.410;2023-05-08T13:54:32;5.25;;;3.50;;
55601;SDS011;59921;51.332;12.410;2023-05-08T13:56:57;5.50;;;3.90;;
55601;SDS011;59921;51.332;12.410;2023-05-08T13:59:23;5.28;;;3.65;;
55601;SDS011;59921;51.332;12.410;2023-05-08T14:01:49;6.15;;;3.85;;
55601;SDS011;59921;51.332;12.410;2023-05-08T14:04:14;5.55;;;3.28;;
55601;SDS011;59921;51.332;12.410;2023-05-08T14:06:40;4.68;;;3.33;;
55601;SDS011;59921;51.332;12.410;2023-05-08T14:09:05;4.80;;;3.60;;
55601;SDS011;59921;51.332;12.410;2023-05-08T14:11:31;5.13;;;3.45;;
55601;SDS011;59921;51.332;12.410;2023-05-08T14:13:56;4.68;;;3.40;;
55601;SDS011;59921;51.332;12.410;2023-05-08T14:16:22;5.38;;;3.38;;
55601;SDS011;59921;51.332;12.410;2023-05-08T14:18:47;4.93;;;3.50;;
55601;SDS011;59921;51.332;12.410;2023-05-08T14:21:13;4.55;;;3.38;;
55601;SDS011;59921;51.332;12.410;2023-05-08T14:23:38;5.13;;;3.90;;
55601;SDS011;59921;51.332;12.410;2023-05-08T14:26:04;4.50;;;3.10;;
55601;SDS011;59921;51.332;12.410;2023-05-08T14:28:29;4.72;;;3.53;;
55601;SDS011;59921;51.332;12.410;2023-05-08T14:30:55;5.20;;;3.70;;
55601;SDS011;59921;51.332;12.410;2023-05-08T14:33:20;4.43;;;3.30;;
55601;SDS011;59921;51.332;12.410;2023-05-08T14:35:46;5.22;;;3.40;;
55601;SDS011;59921;51.332;12.410;2023-05-08T14:38:15;4.43;;;3.20;;
55601;SDS011;59921;51.332;12.410;2023-05-08T14:40:40;4.57;;;3.35;;
55601;SDS011;59921;51.332;12.410;2023-05-08T14:43:06;4.97;;;3.40;;
55601;SDS011;59921;51.332;12.410;2023-05-08T14:45:31;6.13;;;3.50;;
55601;SDS011;59921;51.332;12.410;2023-05-08T14:47:57;4.88;;;3.28;;
55601;SDS011;59921;51.332;12.410;2023-05-08T14:50:23;4.53;;;3.38;;
55601;SDS011;59921;51.332;12.410;2023-05-08T14:52:51;4.70;;;3.40;;
55601;SDS011;59921;51.332;12.410;2023-05-08T14:55:16;4.45;;;3.30;;
55601;SDS011;59921;51.332;12.410;2023-05-08T14:57:47;4.53;;;3.45;;
55601;SDS011;59921;51.332;12.410;2023-05-08T15:00:13;4.78;;;3.40;;
55601;SDS011;59921;51.332;12.410;2023-05-08T15:02:39;4.47;;;3.28;;
55601;SDS011;59921;51.332;12.410;2023-05-08T15:05:05;5.10;;;3.35;;
55601;SDS011;59921;51.332;12.410;2023-05-08T15:07:31;4.40;;;3.15;;
55601;SDS011;59921;51.332;12.410;2023-05-08T15:09:57;4.63;;;3.42;;
55601;SDS011;59921;51.332;12.410;2023-05-08T15:12:22;5.75;;;3.75;;
55601;SDS011;59921;51.332;12.410;2023-05-08T15:14:48;4.82;;;3.40;;
55601;SDS011;59921;51.332;12.410;2023-05-08T15:17:13;4.22;;;3.00;;
55601;SDS011;59921;51.332;12.410;2023-05-08T15:19:39;4.43;;;3.22;;
55601;SDS011;59921;51.332;12.410;2023-05-08T15:22:05;4.70;;;3.30;;
55601;SDS011;59921;51.332;12.410;2023-05-08T15:24:30;4.40;;;3.03;;
55601;SDS011;59921;51.332;12.410;2023-05-08T15:26:56;5.00;;;3.30;;
55601;SDS011;59921;51.332;12.410;2023-05-08T15:29:21;4.20;;;3.10;;
55601;SDS011;59921;51.332;12.410;2023-05-08T15:31:47;4.63;;;3.20;;
55601;SDS011;59921;51.332;12.410;2023-05-08T15:34:13;4.05;;;2.97;;
55601;SDS011;59921;51.332;12.410;2023-05-08T15:36:38;4.20;;;3.13;;